Time;durP1;ratioP1;P1;durP2;ratioP2;P2;SDS_P1;SDS_P2;PMS_P1;PMS_P2;Temp;Humidity;BMP_temperature;BMP_pressure;BME280_temperature;BME280_humidity;BME280_pressure;Samples;Min_cycle;Max_cycle;Signal;HPM_P1;HPM_P2
2022/03/16 00:01:53;;;;;;;78.78;32.03;;;4.60;99.90;;;;;;5156157;27;20050;-73
2022/03/16 00:04:18;;;;;;;65.80;29.50;;;4.60;99.90;;;;;;5157883;27;20116;-73
2022/03/16 00:06:44;;;;;;;62.17;28.85;;;4.60;99.90;;;;;;5175818;27;20026;-75
2022/03/16 00:09:09;;;;;;;63.35;30.17;;;4.60;99.90;;;;;;5171466;27;20482;-74
2022/03/16 00:11:35;;;;;;;65.35;29.85;;;4.60;99.90;;;;;;5137929;27;20161;-73
2022/03/16 00:14:01;;;;;;;83.57;31.58;;;4.60;99.90;;;;;;5156672;27;20104;-73
2022/03/16 00:16:26;;;;;;;61.70;28.05;;;4.50;99.90;;;;;;5141333;27;20094;-74
2022/03/16 00:18:52;;;;;;;69.85;29.10;;;4.50;99.90;;;;;;5157324;27;20054;-74
2022/03/16 00:21:17;;;;;;;65.00;27.90;;;4.50;99.90;;;;;;5156111;27;20106;-75
2022/03/16 00:23:43;;;;;;;62.78;28.08;;;4.40;99.90;;;;;;5156549;27;20054;-74
2022/03/16 00:26:09;;;;;;;70.20;30.98;;;4.40;99.90;;;;;;5138226;27;20038;-73
2022/03/16 00:28:34;;;;;;;66.03;29.00;;;4.40;99.90;;;;;;5155861;27;20074;-73
2022/03/16 00:31:02;;;;;;;64.47;29.20;;;4.40;99.90;;;;;;5155797;27;20046;-74
2022/03/16 00:33:28;;;;;;;59.13;27.48;;;4.40;99.90;;;;;;5155817;27;20501;-76
2022/03/16 00:35:53;;;;;;;68.00;28.40;;;4.30;99.90;;;;;;5137421;27;20081;-74
2022/03/16 00:38:19;;;;;;;71.10;29.20;;;4.30;99.90;;;;;;5137293;27;20042;-73
2022/03/16 00:40:44;;;;;;;72.45;31.17;;;4.20;99.90;;;;;;5156133;27;20121;-73
2022/03/16 00:43:10;;;;;;;72.30;29.98;;;4.20;99.90;;;;;;5155695;27;20039;-74
2022/03/16 00:45:35;;;;;;;72.53;31.10;;;4.20;99.90;;;;;;5155072;27;20050;-74
2022/03/16 00:48:01;;;;;;;73.43;30.08;;;4.20;99.90;;;;;;5136694;27;20122;-74
2022/03/16 00:50:27;;;;;;;80.03;31.63;;;4.20;99.90;;;;;;5155469;27;20039;-75
2022/03/16 00:52:53;;;;;;;83.43;32.00;;;4.20;99.90;;;;;;5155591;27;20145;-74
2022/03/16 00:55:19;;;;;;;97.03;33.63;;;4.10;99.90;;;;;;5155555;27;20046;-73
2022/03/16 00:57:45;;;;;;;71.05;29.13;;;4.10;99.90;;;;;;5155631;27;20531;-74
2022/03/16 01:00:11;;;;;;;98.93;33.47;;;4.10;99.90;;;;;;5155480;27;20064;-75
2022/03/16 01:02:36;;;;;;;99.70;34.20;;;4.10;99.90;;;;;;5120096;27;20050;-74
2022/03/16 01:05:02;;;;;;;92.93;33.88;;;4.10;99.90;;;;;;5155494;27;20042;-75
2022/03/16 01:07:28;;;;;;;91.53;33.60;;;4.10;99.90;;;;;;5155373;27;20167;-75
2022/03/16 01:09:54;;;;;;;83.65;31.85;;;4.10;99.90;;;;;;5155152;27;20137;-75
2022/03/16 01:12:20;;;;;;;85.60;32.70;;;4.10;99.90;;;;;;5155450;27;20049;-74
2022/03/16 01:14:46;;;;;;;107.90;32.92;;;4.10;99.90;;;;;;5155395;27;20410;-75
2022/03/16 01:17:12;;;;;;;80.80;32.58;;;4.10;99.90;;;;;;5155346;27;20046;-74
2022/03/16 01:19:37;;;;;;;79.22;30.67;;;4.10;99.90;;;;;;5136628;27;20107;-75
2022/03/16 01:22:04;;;;;;;79.72;32.00;;;4.10;99.90;;;;;;5155142;27;20039;-75
2022/03/16 01:24:30;;;;;;;;;;;4.00;99.90;;;;;;5155681;27;20050;-74
2022/03/16 01:26:56;;;;;;;63.15;28.60;;;4.00;99.90;;;;;;5155653;27;19923;-75
2022/03/16 01:29:24;;;;;;;60.15;26.38;;;4.00;99.90;;;;;;5155748;27;20047;-75
2022/03/16 01:31:53;;;;;;;63.47;28.23;;;3.90;99.90;;;;;;5155080;27;20042;-75
2022/03/16 01:34:19;;;;;;;61.95;28.02;;;3.80;99.90;;;;;;5155264;27;20038;-75
2022/03/16 01:36:45;;;;;;;65.75;30.50;;;3.80;99.90;;;;;;5154739;27;20047;-75
2022/03/16 01:39:10;;;;;;;66.73;28.40;;;3.80;99.90;;;;;;5155140;27;20092;-75
2022/03/16 01:41:36;;;;;;;66.50;27.58;;;3.80;99.90;;;;;;5155046;27;20280;-75
2022/03/16 01:44:02;;;;;;;62.25;27.50;;;3.70;99.90;;;;;;5155089;27;20488;-75
2022/03/16 01:46:28;;;;;;;58.87;27.60;;;3.70;99.90;;;;;;5154990;27;20038;-76
2022/03/16 01:48:54;;;;;;;57.80;27.05;;;3.70;99.90;;;;;;5155002;27;20069;-75
2022/03/16 01:51:22;;;;;;;50.50;24.83;;;3.70;99.90;;;;;;5154522;27;20035;-75
2022/03/16 01:53:49;;;;;;;65.07;27.75;;;3.60;99.90;;;;;;5154961;27;20043;-75
2022/03/16 01:56:16;;;;;;;58.13;27.52;;;3.60;99.90;;;;;;5154983;27;20038;-75
2022/03/16 01:58:41;;;;;;;58.05;29.50;;;3.70;99.90;;;;;;5140342;27;20043;-75
2022/03/16 02:01:07;;;;;;;72.18;31.45;;;3.50;99.90;;;;;;5140594;27;20391;-75
2022/03/16 02:03:32;;;;;;;58.22;26.92;;;3.60;99.90;;;;;;5140176;27;20131;-75
2022/03/16 02:05:59;;;;;;;72.88;29.35;;;3.60;99.90;;;;;;5140453;27;20091;-75
2022/03/16 02:08:32;;;;;;;75.75;29.80;;;3.50;99.90;;;;;;5159200;27;20043;-75
2022/03/16 02:10:57;;;;;;;75.00;29.77;;;3.50;99.90;;;;;;5158770;27;20483;-74
2022/03/16 02:13:24;;;;;;;57.47;27.83;;;3.50;99.90;;;;;;5158537;27;20042;-75
2022/03/16 02:15:50;;;;;;;;;;;3.50;99.90;;;;;;5158994;27;20474;-74
2022/03/16 02:18:15;;;;;;;72.68;28.58;;;3.50;99.90;;;;;;5140408;27;19923;-75
2022/03/16 02:20:41;;;;;;;75.30;27.45;;;3.40;99.90;;;;;;5158464;27;20039;-75
2022/03/16 02:23:08;;;;;;;75.70;28.77;;;3.40;99.90;;;;;;5139924;27;20045;-75
2022/03/16 02:25:48;;;;;;;62.55;27.77;;;3.40;99.90;;;;;;5158435;27;20050;-75
2022/03/16 02:28:13;;;;;;;64.03;26.98;;;3.40;99.90;;;;;;5158379;27;20042;-75
2022/03/16 02:30:39;;;;;;;71.90;28.17;;;3.30;99.90;;;;;;5158292;27;20045;-75
2022/03/16 02:33:04;;;;;;;65.95;27.15;;;3.30;99.90;;;;;;5158168;27;20069;-75
2022/03/16 02:35:31;;;;;;;59.28;26.70;;;3.20;99.90;;;;;;5158111;27;20039;-75
2022/03/16 02:37:58;;;;;;;;;;;3.30;99.90;;;;;;5158583;27;20086;-74
2022/03/16 02:40:24;;;;;;;58.45;25.95;;;3.20;99.90;;;;;;5158007;27;19919;-75
2022/03/16 02:42:50;;;;;;;56.30;24.90;;;3.20;99.90;;;;;;5139865;27;20129;-76
2022/03/16 02:45:17;;;;;;;56.70;26.05;;;3.20;99.90;;;;;;5157983;27;20067;-75
2022/03/16 02:47:44;;;;;;;59.33;26.98;;;3.10;99.90;;;;;;5139642;27;20133;-75
2022/03/16 02:50:11;;;;;;;63.50;26.80;;;3.10;99.90;;;;;;5158266;27;20038;-75
2022/03/16 02:52:37;;;;;;;63.05;27.30;;;3.00;99.90;;;;;;5139538;27;20137;-75
2022/03/16 02:55:04;;;;;;;48.05;23.02;;;3.10;99.90;;;;;;5157769;27;20142;-75
2022/03/16 02:57:30;;;;;;;50.15;24.58;;;3.00;99.90;;;;;;5157574;27;20049;-75
2022/03/16 02:59:55;;;;;;;64.75;25.90;;;3.00;99.90;;;;;;5139214;27;20125;-76
2022/03/16 03:02:21;;;;;;;56.65;24.95;;;3.00;99.90;;;;;;5157250;27;20042;-74
2022/03/16 03:04:47;;;;;;;60.97;25.63;;;2.90;99.90;;;;;;5157718;27;20093;-75
2022/03/16 03:07:13;;;;;;;53.08;24.98;;;2.90;99.90;;;;;;5157339;27;20053;-75
2022/03/16 03:09:38;;;;;;;53.90;26.08;;;2.90;99.90;;;;;;5157380;27;20043;-75
2022/03/16 03:12:04;;;;;;;53.58;25.25;;;2.90;99.90;;;;;;5157902;27;20504;-75
2022/03/16 03:14:31;;;;;;;54.83;24.23;;;2.90;99.90;;;;;;5157433;27;20042;-75
2022/03/16 03:16:56;;;;;;;53.85;24.83;;;2.90;99.90;;;;;;5138960;27;20608;-74
2022/03/16 03:19:22;;;;;;;50.85;25.13;;;2.90;99.90;;;;;;5156928;27;20122;-75
2022/03/16 03:21:48;;;;;;;52.17;24.67;;;2.90;99.90;;;;;;5157252;27;20038;-74
2022/03/16 03:24:14;;;;;;;52.42;24.58;;;2.90;99.90;;;;;;5157203;27;20038;-75
2022/03/16 03:26:39;;;;;;;55.38;25.48;;;2.90;99.90;;;;;;5138760;27;20042;-75
2022/03/16 03:29:05;;;;;;;51.83;24.42;;;2.90;99.90;;;;;;5138921;27;20478;-75
2022/03/16 03:31:30;;;;;;;50.63;23.98;;;2.90;99.90;;;;;;5138685;27;20110;-75
2022/03/16 03:33:56;;;;;;;46.45;23.58;;;2.90;99.90;;;;;;5156922;27;20038;-74
2022/03/16 03:36:22;;;;;;;71.30;27.05;;;2.90;99.90;;;;;;5156999;27;20494;-75
2022/03/16 03:38:47;;;;;;;61.55;27.67;;;2.90;99.90;;;;;;5157414;27;20470;-75
2022/03/16 03:41:13;;;;;;;76.40;29.30;;;2.90;99.90;;;;;;5138162;27;20482;-76
2022/03/16 03:43:39;;;;;;;65.47;27.48;;;2.90;99.90;;;;;;5138415;27;20049;-75
2022/03/16 03:46:04;;;;;;;77.50;28.85;;;2.90;99.90;;;;;;5156695;27;20428;-74
2022/03/16 03:48:30;;;;;;;70.45;28.45;;;2.90;99.90;;;;;;5138213;27;20038;-75
2022/03/16 03:50:56;;;;;;;63.05;27.00;;;2.90;99.90;;;;;;5138416;27;20047;-75
2022/03/16 03:53:21;;;;;;;60.55;28.35;;;3.00;99.90;;;;;;5138148;27;20042;-75
2022/03/16 03:55:47;;;;;;;57.47;26.60;;;2.90;99.90;;;;;;5156620;27;20038;-75
2022/03/16 03:58:12;;;;;;;51.97;25.83;;;2.90;99.90;;;;;;5156506;27;20042;-75
2022/03/16 04:00:38;;;;;;;55.70;25.17;;;;;;;;;;5156426;27;20045;-76
2022/03/16 04:03:04;;;;;;;59.50;25.85;;;2.90;99.90;;;;;;5156389;27;20034;-75
2022/03/16 04:05:29;;;;;;;55.88;26.02;;;2.80;99.90;;;;;;5156423;27;20035;-75
2022/03/16 04:07:55;;;;;;;49.80;24.05;;;2.90;99.90;;;;;;5156348;27;20039;-75
2022/03/16 04:10:21;;;;;;;55.05;25.80;;;2.80;99.90;;;;;;5156132;27;20175;-75
2022/03/16 04:12:46;;;;;;;47.50;24.85;;;2.80;99.90;;;;;;5156231;27;20111;-76
2022/03/16 04:15:12;;;;;;;53.58;25.02;;;2.80;99.90;;;;;;5155956;27;20047;-75
2022/03/16 04:17:38;;;;;;;49.08;24.27;;;2.80;99.90;;;;;;5156227;27;20039;-75
2022/03/16 04:20:05;;;;;;;59.78;24.73;;;2.80;99.90;;;;;;5138176;27;20133;-76
2022/03/16 04:22:31;;;;;;;56.83;25.10;;;2.80;99.90;;;;;;5155927;27;20112;-76
2022/03/16 04:24:57;;;;;;;57.33;26.27;;;2.70;99.90;;;;;;5137561;27;20058;-76
2022/03/16 04:27:23;;;;;;;52.50;24.73;;;2.70;99.90;;;;;;5155660;27;20043;-76
2022/03/16 04:29:49;;;;;;;49.00;23.92;;;2.70;99.90;;;;;;5156470;27;20039;-76
2022/03/16 04:32:15;;;;;;;60.53;23.30;;;2.70;99.90;;;;;;5156010;27;20045;-76
2022/03/16 04:34:41;;;;;;;48.55;25.23;;;2.70;99.90;;;;;;5155873;27;20778;-76
2022/03/16 04:37:06;;;;;;;58.53;25.27;;;2.70;99.90;;;;;;5156045;27;20463;-76
2022/03/16 04:39:32;;;;;;;54.58;25.02;;;2.70;99.90;;;;;;5156140;27;20051;-76
2022/03/16 04:41:58;;;;;;;51.60;24.15;;;2.70;99.90;;;;;;5155764;27;20042;-75
2022/03/16 04:44:24;;;;;;;62.92;26.27;;;2.60;99.90;;;;;;5155747;27;20050;-75
2022/03/16 04:46:49;;;;;;;52.72;24.65;;;2.60;99.90;;;;;;5136852;27;20087;-75
2022/03/16 04:49:15;;;;;;;53.05;24.08;;;2.60;99.90;;;;;;5136944;27;20054;-76
2022/03/16 04:51:40;;;;;;;51.03;24.55;;;2.60;99.90;;;;;;5155555;27;20122;-76
2022/03/16 04:54:10;;;;;;;44.45;21.83;;;2.60;99.90;;;;;;5155986;27;20398;-75
2022/03/16 04:56:36;;;;;;;38.15;21.67;;;2.60;99.90;;;;;;5155571;27;20133;-76
2022/03/16 04:59:03;;;;;;;45.22;23.42;;;2.50;99.90;;;;;;5155795;27;20050;-75
2022/03/16 05:01:29;;;;;;;43.50;22.55;;;2.50;99.90;;;;;;5155372;27;20082;-76
2022/03/16 05:03:55;;;;;;;43.53;23.23;;;2.50;99.90;;;;;;5155393;27;20085;-76
2022/03/16 05:06:20;;;;;;;52.05;23.50;;;2.50;99.90;;;;;;5155708;27;20039;-76
2022/03/16 05:08:47;;;;;;;50.22;22.63;;;2.40;99.90;;;;;;5155437;27;20467;-76
2022/03/16 05:11:14;;;;;;;51.63;23.27;;;2.50;99.90;;;;;;5155406;27;20066;-74
2022/03/16 05:13:40;;;;;;;49.33;23.90;;;2.40;99.90;;;;;;5137036;27;20046;-76
2022/03/16 05:16:07;;;;;;;76.07;26.50;;;2.40;99.90;;;;;;5137165;27;20139;-75
2022/03/16 05:18:33;;;;;;;49.50;22.70;;;2.40;99.90;;;;;;5136904;27;20050;-74
2022/03/16 05:20:59;;;;;;;48.88;22.63;;;2.40;99.90;;;;;;5155411;27;20038;-74
2022/03/16 05:23:24;;;;;;;53.83;23.98;;;2.40;99.90;;;;;;5155318;27;20146;-75
2022/03/16 05:25:50;;;;;;;41.53;21.65;;;2.40;99.90;;;;;;5136670;27;20066;-75
2022/03/16 05:28:17;;;;;;;52.20;24.63;;;2.30;99.90;;;;;;5155126;27;20486;-74
2022/03/16 05:30:43;;;;;;;46.33;21.38;;;2.30;99.90;;;;;;5155211;27;20394;-74
2022/03/16 05:33:09;;;;;;;42.22;21.60;;;2.20;99.90;;;;;;5158342;27;20042;-78
2022/03/16 05:35:35;;;;;;;42.03;22.30;;;2.20;99.90;;;;;;5159448;27;20071;-74
2022/03/16 05:38:02;;;;;;;42.65;21.75;;;2.20;99.90;;;;;;5159625;27;20035;-73
2022/03/16 05:40:28;;;;;;;40.28;22.10;;;2.20;99.90;;;;;;5159443;27;20042;-74
2022/03/16 05:42:54;;;;;;;41.13;20.30;;;2.20;99.90;;;;;;5159136;27;20042;-74
2022/03/16 05:45:19;;;;;;;41.17;22.08;;;2.20;99.90;;;;;;5159165;27;20050;-74
2022/03/16 05:47:45;;;;;;;41.15;21.80;;;2.20;99.90;;;;;;5140745;27;20050;-74
2022/03/16 05:50:11;;;;;;;37.35;19.83;;;2.20;99.90;;;;;;5159156;27;20046;-74
2022/03/16 05:52:37;;;;;;;43.88;22.52;;;2.20;99.90;;;;;;5158976;27;20035;-74
2022/03/16 05:55:04;;;;;;;46.83;23.58;;;2.20;99.90;;;;;;5159033;27;20075;-73
2022/03/16 05:57:29;;;;;;;39.92;21.83;;;2.30;99.90;;;;;;5159089;27;20047;-73
2022/03/16 05:59:55;;;;;;;43.70;22.70;;;2.30;99.90;;;;;;5158896;27;20252;-76
2022/03/16 06:02:21;;;;;;;40.42;20.80;;;2.30;99.90;;;;;;5158703;27;20129;-75
2022/03/16 06:04:46;;;;;;;44.20;22.55;;;2.30;99.90;;;;;;5158829;27;20037;-74
2022/03/16 06:07:12;;;;;;;43.92;22.42;;;2.30;99.90;;;;;;5140254;27;20451;-76
2022/03/16 06:09:39;;;;;;;46.08;23.58;;;2.30;99.90;;;;;;5158696;27;20102;-75
2022/03/16 06:12:05;;;;;;;;;;;2.40;99.90;;;;;;5158941;27;20051;-74
2022/03/16 06:14:31;;;;;;;42.15;22.35;;;2.40;99.90;;;;;;5158523;27;20388;-73
2022/03/16 06:16:57;;;;;;;45.25;22.90;;;2.50;99.90;;;;;;5158507;27;20386;-74
2022/03/16 06:19:23;;;;;;;42.83;22.70;;;2.50;99.90;;;;;;5158315;27;20080;-74
2022/03/16 06:21:49;;;;;;;41.38;21.77;;;2.50;99.90;;;;;;5158486;27;20466;-76
2022/03/16 06:24:15;;;;;;;40.83;21.20;;;2.60;99.90;;;;;;5158429;27;20047;-76
2022/03/16 06:26:42;;;;;;;36.97;20.90;;;2.60;99.90;;;;;;5158707;27;20042;-74
2022/03/16 06:29:08;;;;;;;44.55;23.13;;;2.70;99.90;;;;;;5158028;27;20486;-75
2022/03/16 06:31:34;;;;;;;45.50;22.83;;;2.70;99.90;;;;;;5158142;27;20047;-74
2022/03/16 06:34:00;;;;;;;50.38;24.08;;;2.70;99.90;;;;;;5158273;27;20390;-75
2022/03/16 06:36:26;;;;;;;43.33;22.88;;;2.80;99.90;;;;;;5158222;27;20050;-74
2022/03/16 06:38:56;;;;;;;49.72;25.15;;;2.80;99.90;;;;;;5158133;27;20046;-74
2022/03/16 06:41:22;;;;;;;46.30;24.85;;;2.90;99.90;;;;;;5158099;27;20047;-75
2022/03/16 06:43:47;;;;;;;56.30;25.73;;;3.00;99.90;;;;;;5139456;27;20046;-75
2022/03/16 06:46:13;;;;;;;43.28;24.90;;;3.10;99.90;;;;;;5158026;27;20047;-76
2022/03/16 06:48:39;;;;;;;46.30;26.05;;;3.20;99.90;;;;;;5158043;27;20043;-76
2022/03/16 06:51:06;;;;;;;48.22;24.42;;;3.30;99.90;;;;;;5157894;27;20471;-76
2022/03/16 06:53:31;;;;;;;45.00;23.95;;;3.40;99.90;;;;;;5157843;27;20046;-76
2022/03/16 06:55:57;;;;;;;45.88;25.75;;;3.50;99.90;;;;;;5157866;27;20398;-76
2022/03/16 06:58:22;;;;;;;44.30;25.15;;;3.60;99.90;;;;;;5139461;27;20054;-77
2022/03/16 07:00:48;;;;;;;46.13;25.27;;;3.70;99.90;;;;;;5157878;27;20045;-77
2022/03/16 07:03:14;;;;;;;43.55;24.38;;;3.70;99.90;;;;;;5157911;27;20046;-77
2022/03/16 07:05:40;;;;;;;41.63;23.98;;;3.80;99.90;;;;;;5122252;27;20035;-75
2022/03/16 07:08:11;;;;;;;42.40;22.55;;;3.90;99.90;;;;;;5157706;27;20081;-76
2022/03/16 07:10:39;;;;;;;40.20;23.92;;;4.00;99.90;;;;;;5157419;27;20054;-75
2022/03/16 07:13:04;;;;;;;42.22;23.02;;;4.00;99.90;;;;;;5157492;27;20058;-76
2022/03/16 07:15:34;;;;;;;43.38;25.00;;;4.00;99.90;;;;;;5157545;27;20406;-76
2022/03/16 07:18:01;;;;;;;41.45;23.70;;;4.10;99.90;;;;;;5157189;27;20082;-76
2022/03/16 07:20:28;;;;;;;40.00;24.33;;;4.10;99.90;;;;;;5157380;27;20043;-76
2022/03/16 07:23:09;;;;;;;44.47;24.80;;;4.20;99.90;;;;;;5156980;27;20490;-76
2022/03/16 07:25:36;;;;;;;43.53;24.50;;;4.20;99.90;;;;;;5157276;27;20039;-76
2022/03/16 07:28:02;;;;;;;42.85;24.77;;;4.30;99.90;;;;;;5157275;27;20042;-76
2022/03/16 07:30:27;;;;;;;41.72;23.63;;;4.40;99.90;;;;;;5157611;27;20462;-76
2022/03/16 07:32:53;;;;;;;45.40;24.60;;;4.50;99.90;;;;;;5157011;27;20478;-77
2022/03/16 07:35:24;;;;;;;44.63;26.58;;;4.60;99.90;;;;;;5156978;27;20482;-77
2022/03/16 07:37:49;;;;;;;44.70;25.10;;;4.60;99.90;;;;;;5157156;27;20049;-78
2022/03/16 07:40:15;;;;;;;39.30;23.23;;;4.80;99.90;;;;;;5157167;27;20042;-77
2022/03/16 07:42:47;;;;;;;43.70;26.20;;;4.80;99.90;;;;;;5156744;27;20045;-77
2022/03/16 07:45:15;;;;;;;41.65;24.52;;;5.00;99.90;;;;;;5157278;27;20042;-77
2022/03/16 07:47:42;;;;;;;43.80;24.20;;;5.20;99.90;;;;;;5156857;27;20039;-76
2022/03/16 07:50:09;;;;;;;40.97;23.73;;;5.30;99.90;;;;;;5157009;27;20042;-76
2022/03/16 07:52:35;;;;;;;38.97;25.33;;;5.50;99.90;;;;;;5138236;27;20038;-76
2022/03/16 07:55:01;;;;;;;40.17;24.23;;;5.60;99.90;;;;;;5155871;27;20039;-76
2022/03/16 07:57:26;;;;;;;41.08;23.90;;;5.70;99.90;;;;;;5156507;27;20828;-74
2022/03/16 07:59:54;;;;;;;41.78;24.25;;;;;;;;;;5156595;27;20039;-75
2022/03/16 08:02:20;;;;;;;36.30;22.80;;;5.90;99.90;;;;;;5156656;27;20046;-75
2022/03/16 08:04:46;;;;;;;34.05;21.67;;;6.00;99.90;;;;;;5156525;27;20047;-75
2022/03/16 08:07:11;;;;;;;38.25;20.30;;;6.10;99.90;;;;;;5120850;27;20043;-75
2022/03/16 08:09:37;;;;;;;39.53;20.45;;;6.10;99.90;;;;;;5156463;27;20046;-75
2022/03/16 08:12:03;;;;;;;36.67;21.90;;;6.20;99.90;;;;;;5137665;27;20051;-75
2022/03/16 08:14:29;;;;;;;33.60;21.57;;;6.30;99.90;;;;;;5137806;27;20047;-76
2022/03/16 08:16:54;;;;;;;34.70;22.13;;;6.40;99.90;;;;;;5156149;27;20363;-76
2022/03/16 08:19:21;;;;;;;32.03;20.90;;;6.40;99.90;;;;;;5156087;27;20072;-75
2022/03/16 08:21:48;;;;;;;33.65;21.15;;;6.50;99.90;;;;;;5155874;27;20045;-75
2022/03/16 08:24:14;;;;;;;35.15;20.67;;;6.60;99.90;;;;;;5148526;27;20047;-75
2022/03/16 08:26:40;;;;;;;38.42;21.85;;;6.80;99.90;;;;;;5137441;27;20046;-76
2022/03/16 08:29:07;;;;;;;32.38;20.27;;;6.90;99.90;;;;;;5155805;27;20053;-75
2022/03/16 08:31:33;;;;;;;33.13;19.02;;;7.10;99.90;;;;;;5155245;27;20501;-75
2022/03/16 08:33:59;;;;;;;34.42;20.05;;;7.30;99.90;;;;;;5155733;27;20034;-75
2022/03/16 08:36:25;;;;;;;32.97;20.00;;;7.50;99.90;;;;;;5137332;27;20129;-76
2022/03/16 08:38:50;;;;;;;29.58;19.42;;;7.70;99.90;;;;;;5120051;27;20042;-75
2022/03/16 08:41:16;;;;;;;34.65;20.33;;;7.80;99.90;;;;;;5155519;27;20446;-75
2022/03/16 08:43:41;;;;;;;29.02;19.13;;;7.90;99.90;;;;;;5137381;27;20383;-75
2022/03/16 08:46:07;;;;;;;35.55;20.80;;;8.00;99.90;;;;;;5120042;27;20066;-75
2022/03/16 08:48:33;;;;;;;31.42;19.83;;;8.00;99.90;;;;;;5155305;27;20121;-75
2022/03/16 08:51:00;;;;;;;38.00;19.92;;;8.10;99.90;;;;;;5155409;27;20039;-76
2022/03/16 08:53:26;;;;;;;32.28;20.00;;;8.30;99.90;;;;;;5155574;27;20180;-80
2022/03/16 08:55:52;;;;;;;29.15;18.42;;;8.40;99.90;;;;;;5155149;27;20046;-77
2022/03/16 08:58:18;;;;;;;30.63;19.20;;;8.50;99.90;;;;;;5155399;27;20045;-77
2022/03/16 09:00:44;;;;;;;39.83;19.95;;;8.60;99.90;;;;;;5155152;27;20042;-77
2022/03/16 09:03:09;;;;;;;37.33;17.13;;;8.80;99.90;;;;;;5155342;27;20078;-75
2022/03/16 09:05:35;;;;;;;25.98;16.30;;;8.80;99.90;;;;;;5155025;27;20343;-77
2022/03/16 09:08:00;;;;;;;32.40;18.67;;;9.00;99.90;;;;;;5155409;27;20130;-80
2022/03/16 09:10:26;;;;;;;25.60;15.52;;;9.10;99.90;;;;;;5154738;27;20467;-77
2022/03/16 09:12:52;;;;;;;28.35;15.23;;;9.20;99.90;;;;;;5155128;27;20416;-76
2022/03/16 09:15:18;;;;;;;24.25;15.32;;;9.30;99.90;;;;;;5155254;27;20039;-75
2022/03/16 09:17:44;;;;;;;25.00;14.65;;;9.40;99.90;;;;;;5155205;27;20050;-76
2022/03/16 09:20:09;;;;;;;23.63;14.68;;;9.40;99.90;;;;;;5155202;27;20046;-76
2022/03/16 09:22:35;;;;;;;26.63;15.27;;;9.40;99.90;;;;;;5155178;27;20047;-75
2022/03/16 09:25:01;;;;;;;34.33;14.65;;;9.50;99.90;;;;;;5154799;27;20039;-76
2022/03/16 09:27:27;;;;;;;23.77;13.75;;;9.70;99.90;;;;;;5154748;27;20042;-76
2022/03/16 09:29:54;;;;;;;31.67;13.75;;;9.80;99.90;;;;;;5155194;27;20050;-76
2022/03/16 09:32:21;;;;;;;22.05;12.93;;;9.90;99.90;;;;;;5155162;27;20394;-74
2022/03/16 09:34:48;;;;;;;22.10;13.73;;;10.00;99.90;;;;;;5137177;27;20035;-75
2022/03/16 09:37:14;;;;;;;;;;;10.10;99.90;;;;;;5155459;27;20424;-74
2022/03/16 09:39:41;;;;;;;18.27;11.30;;;10.30;99.90;;;;;;5155259;27;19926;-74
2022/03/16 09:42:08;;;;;;;17.25;11.57;;;10.40;99.90;;;;;;5155229;27;20034;-76
2022/03/16 09:44:34;;;;;;;18.73;11.90;;;10.50;99.90;;;;;;5155280;27;20049;-76
2022/03/16 09:47:01;;;;;;;18.83;10.77;;;10.60;99.90;;;;;;5154287;27;20099;-76
2022/03/16 09:49:27;;;;;;;16.75;11.02;;;10.60;99.90;;;;;;5154199;27;20043;-76
2022/03/16 09:51:54;;;;;;;18.40;10.48;;;10.70;99.90;;;;;;5135813;27;20031;-76
2022/03/16 09:54:21;;;;;;;16.55;10.90;;;10.70;99.90;;;;;;5154091;27;20043;-76
2022/03/16 09:56:47;;;;;;;18.02;11.00;;;10.80;99.90;;;;;;5154728;27;20054;-76
2022/03/16 09:59:16;;;;;;;19.67;11.00;;;10.90;99.90;;;;;;5154837;27;20053;-75
2022/03/16 10:01:43;;;;;;;19.67;10.65;;;11.10;99.90;;;;;;5154852;27;20047;-75
2022/03/16 10:04:09;;;;;;;27.77;11.43;;;11.20;99.90;;;;;;5136090;27;20058;-76
2022/03/16 10:06:40;;;;;;;27.05;11.70;;;11.20;99.90;;;;;;5154979;27;20046;-75
2022/03/16 10:15:10;;;;;;;19.35;11.18;;;11.50;99.90;;;;;;5154727;27;20498;-75
2022/03/16 10:17:43;;;;;;;19.35;11.30;;;11.60;99.90;;;;;;5154935;27;20125;-75
2022/03/16 10:20:10;;;;;;;23.25;12.10;;;11.70;99.90;;;;;;5158664;27;20068;-75
2022/03/16 10:22:38;;;;;;;18.53;11.57;;;12.00;99.90;;;;;;5158326;27;20053;-75
2022/03/16 10:25:08;;;;;;;17.67;11.77;;;11.90;99.90;;;;;;5140043;27;20280;-76
2022/03/16 10:27:37;;;;;;;19.38;11.60;;;12.00;99.90;;;;;;5158456;27;20049;-76
2022/03/16 10:30:05;;;;;;;20.17;11.63;;;12.00;99.90;;;;;;5139765;27;20409;-74
2022/03/16 10:32:32;;;;;;;17.33;10.73;;;12.10;99.90;;;;;;5158320;27;20043;-74
2022/03/16 10:35:02;;;;;;;;;;;12.00;99.90;;;;;;5158597;27;20063;-74
2022/03/16 10:37:28;;;;;;;14.75;9.40;;;12.00;99.90;;;;;;5158440;27;19926;-75
2022/03/16 10:39:53;;;;;;;22.42;10.68;;;12.00;99.90;;;;;;5158220;27;20034;-75
2022/03/16 10:48:16;;;;;;;17.45;8.85;;;12.00;99.90;;;;;;5157962;27;20054;-75
2022/03/16 10:50:43;;;;;;;18.67;9.38;;;12.10;99.90;;;;;;5157797;27;20035;-75
2022/03/16 10:53:11;;;;;;;15.85;8.63;;;12.10;99.90;;;;;;5157867;27;20129;-75
2022/03/16 10:55:38;;;;;;;13.68;8.48;;;12.20;99.90;;;;;;5157705;27;20129;-75
2022/03/16 10:58:06;;;;;;;18.05;10.00;;;12.30;99.90;;;;;;5146897;27;20039;-75
2022/03/16 11:00:36;;;;;;;13.57;9.07;;;12.30;99.90;;;;;;5136742;27;20047;-75
2022/03/16 11:03:06;;;;;;;17.10;9.55;;;12.50;99.90;;;;;;5136955;27;20086;-76
2022/03/16 11:05:36;;;;;;;17.80;9.77;;;12.50;99.90;;;;;;5136614;27;20043;-76
2022/03/16 11:08:06;;;;;;;15.68;9.57;;;12.70;99.90;;;;;;5136829;27;20066;-75
2022/03/16 11:10:42;;;;;;;17.13;10.07;;;12.80;99.90;;;;;;5136318;27;20047;-75
2022/03/16 11:15:55;;;;;;;17.65;10.25;;;12.90;99.90;;;;;;5136777;27;20047;-75
2022/03/16 11:18:22;;;;;;;16.15;10.25;;;13.00;99.90;;;;;;5147630;27;20488;-75
2022/03/16 11:20:50;;;;;;;17.27;10.50;;;13.00;99.90;;;;;;5136143;27;20088;-74
2022/03/16 11:26:25;;;;;;;18.23;10.50;;;12.90;99.90;;;;;;5136210;27;20055;-74
2022/03/16 11:28:57;;;;;;;18.40;11.00;;;13.00;99.90;;;;;;5117878;27;20043;-74
2022/03/16 11:31:25;;;;;;;18.05;10.00;;;13.10;99.90;;;;;;5136190;27;20051;-75
2022/03/16 11:33:53;;;;;;;15.73;10.32;;;13.10;99.90;;;;;;5136264;27;20039;-74
2022/03/16 11:36:35;;;;;;;18.00;10.32;;;13.10;99.90;;;;;;5117765;27;20517;-75
2022/03/16 11:39:02;;;;;;;18.17;10.43;;;13.30;99.90;;;;;;5135909;27;20051;-74
2022/03/16 11:41:32;;;;;;;18.48;11.45;;;13.40;99.90;;;;;;5135997;27;20043;-75
2022/03/16 11:44:25;;;;;;;18.50;10.80;;;13.50;99.90;;;;;;5136171;27;20039;-74
2022/03/16 11:46:54;;;;;;;19.23;11.88;;;13.50;99.90;;;;;;5136111;27;20051;-74
2022/03/16 11:49:29;;;;;;;18.77;11.10;;;13.60;99.90;;;;;;5135734;27;20047;-74
2022/03/16 11:52:00;;;;;;;18.35;11.05;;;13.60;99.90;;;;;;5135661;27;20043;-76
2022/03/16 11:54:46;;;;;;;20.30;11.65;;;13.70;99.90;;;;;;5135618;27;20103;-76
2022/03/16 11:57:13;;;;;;;19.23;11.27;;;13.90;99.90;;;;;;5136085;27;20072;-75
2022/03/16 11:59:46;;;;;;;16.83;11.00;;;13.90;99.90;;;;;;5135798;27;20062;-78
2022/03/16 12:02:17;;;;;;;19.20;10.95;;;13.90;99.90;;;;;;5135764;27;20070;-77
2022/03/16 12:04:45;;;;;;;20.10;12.27;;;13.90;99.90;;;;;;5135695;27;20175;-76
2022/03/16 12:07:18;;;;;;;16.40;11.50;;;13.80;99.90;;;;;;5135421;27;20130;-75
2022/03/16 12:09:55;;;;;;;17.42;11.38;;;13.80;99.90;;;;;;5134990;27;20483;-75
2022/03/16 12:15:11;;;;;;;19.98;11.63;;;14.10;99.90;;;;;;5139173;27;20049;-74
2022/03/16 12:17:41;;;;;;;19.57;10.47;;;14.20;99.90;;;;;;5139606;27;20492;-75
2022/03/16 12:20:25;;;;;;;19.27;11.23;;;14.10;99.90;;;;;;5116995;27;20039;-75
2022/03/16 12:22:56;;;;;;;18.13;11.43;;;14.20;99.90;;;;;;5134850;27;20486;-76
2022/03/16 12:25:30;;;;;;;18.65;11.43;;;14.30;99.90;;;;;;5135259;27;20134;-75
2022/03/16 12:30:59;;;;;;;18.70;12.20;;;14.40;99.90;;;;;;5135183;27;20043;-75
2022/03/16 12:33:32;;;;;;;22.13;13.23;;;14.50;99.90;;;;;;5135073;27;20046;-75
2022/03/16 12:36:03;;;;;;;18.02;11.48;;;14.50;99.90;;;;;;5135388;27;20043;-76
2022/03/16 12:38:30;;;;;;;22.33;11.55;;;14.40;99.90;;;;;;5116739;27;20436;-75
2022/03/16 12:43:45;;;;;;;21.15;12.70;;;14.50;99.90;;;;;;5134680;27;20090;-75
2022/03/16 12:46:25;;;;;;;19.77;12.10;;;14.50;99.90;;;;;;5134779;27;20042;-75
2022/03/16 12:48:55;;;;;;;21.50;11.70;;;14.60;99.90;;;;;;5134891;27;20043;-75
2022/03/16 12:51:36;;;;;;;21.45;12.32;;;14.70;99.90;;;;;;5099216;28;20042;-75
2022/03/16 12:54:02;;;;;;;20.30;12.25;;;14.80;99.90;;;;;;5134476;27;20103;-75
2022/03/16 12:56:28;;;;;;;19.58;12.60;;;14.80;99.90;;;;;;5099578;27;20061;-75
2022/03/16 12:58:55;;;;;;;18.33;12.40;;;14.80;99.90;;;;;;5135110;27;20122;-75
2022/03/16 13:01:21;;;;;;;16.35;11.18;;;14.80;99.90;;;;;;5134637;27;20051;-75
2022/03/16 13:03:50;;;;;;;16.75;10.63;;;14.90;99.90;;;;;;5134695;27;20054;-75